Terminal Aerodrome Forecast
Issued by NWS Lubbock, TX

Home | Current Version | Previous Version | Text Only | Print | Product List | Glossary On
Versions: 1 2 3 4 5 6 7 8 9 10 11 12 13 14 15 16 17 18 19 20 21 22 23 24 25 26 27 28 29 30
000
FTUS44 KLUB 161122
TAFLBB
TAF
KLBB 161122Z 1612/1712 36008KT P6SM BKN015 OVC018
      TEMPO 1612/1614 BKN008 OVC010
     FM161600 36008KT P6SM BKN010 BKN040
     FM161900 35008KT P6SM FEW100=

USA.gov is the U.S. government's official web portal to all federal, state and local government web resources and services.